Frances, Washington
Current Conditions -  °F | °C
As of 7:53 PM on Sunday 25 Jan 2015 (Local Time) from KHQM Reporting Station
Clear Clear  
Wind Chill: 51°   Ceiling: Unl
Heat Index: 51°   Visibility: 9mi
Dew Point: 48°   Wind: 7mph
Humidity: 89%   Direction: 60°ENE
Pressure: 29.98"   Gusts: NA
Location:  46.6563°N, 123.58°W
Report Text: KHQM 260353Z AUTO 06006KT 9SM CLR 11/09 A2998 RMK AO2 SLP155 T01060089
Loading
Personal Weather Stations






























Interactive Weather Map New forecast layout! Learn more

10-Day Weather Forecast

Advertisements
Track Severe Weather on mobile